createdAt,value
2018-07-26T00:01:19.209Z,6.10
2018-07-26T00:03:48.071Z,5.60
2018-07-26T00:06:17.276Z,5.43
2018-07-26T00:08:46.091Z,6.27
2018-07-26T00:11:16.446Z,6.10
2018-07-26T00:13:45.435Z,6.00
2018-07-26T00:16:14.159Z,5.90
2018-07-26T00:18:43.082Z,5.80
2018-07-26T00:21:11.772Z,19.23
2018-07-26T00:23:40.560Z,14.00
2018-07-26T00:26:09.337Z,7.57
2018-07-26T00:28:38.012Z,6.63
2018-07-26T00:31:06.800Z,5.83
2018-07-26T00:33:35.523Z,7.33
2018-07-26T00:36:04.396Z,8.17
2018-07-26T00:38:33.128Z,6.17
2018-07-26T00:41:01.889Z,7.10
2018-07-26T00:43:30.676Z,7.40
2018-07-26T00:45:59.508Z,6.47
2018-07-26T00:48:28.236Z,7.60
2018-07-26T00:50:56.993Z,6.73
2018-07-26T00:53:25.730Z,6.23
2018-07-26T00:55:54.497Z,6.90
2018-07-26T00:58:23.247Z,6.13
2018-07-26T01:00:51.956Z,7.23
2018-07-26T01:03:20.721Z,6.83
2018-07-26T01:05:49.505Z,7.10
2018-07-26T01:08:18.280Z,6.27
2018-07-26T01:10:47.045Z,6.70
2018-07-26T01:13:15.930Z,6.53
2018-07-26T01:15:44.680Z,6.07
2018-07-26T01:18:13.428Z,5.80
2018-07-26T01:20:42.156Z,6.70
2018-07-26T01:23:10.987Z,6.50
2018-07-26T01:25:39.750Z,6.93
2018-07-26T01:28:08.667Z,6.20
2018-07-26T01:30:37.407Z,8.30
2018-07-26T01:33:06.282Z,7.40
2018-07-26T01:35:35.105Z,7.63
2018-07-26T01:38:03.835Z,6.97
2018-07-26T01:40:32.616Z,7.20
2018-07-26T01:43:12.693Z,6.70
2018-07-26T01:45:41.483Z,7.27
2018-07-26T01:48:10.173Z,6.70
2018-07-26T01:50:38.913Z,6.73
2018-07-26T01:53:07.846Z,6.70
2018-07-26T01:55:36.585Z,7.23
2018-07-26T01:58:05.304Z,6.90
2018-07-26T02:00:34.029Z,6.30
2018-07-26T02:03:02.763Z,6.93
2018-07-26T02:05:31.552Z,6.57
2018-07-26T02:08:00.340Z,6.37
2018-07-26T02:10:29.111Z,6.70
2018-07-26T02:12:57.838Z,7.60
2018-07-26T02:15:26.590Z,6.33
2018-07-26T02:17:55.326Z,7.40
2018-07-26T02:20:24.099Z,6.57
2018-07-26T02:22:52.886Z,7.37
2018-07-26T02:25:22.207Z,6.10
2018-07-26T02:27:50.860Z,6.50
2018-07-26T02:30:19.730Z,6.50
2018-07-26T02:32:48.436Z,6.30
2018-07-26T02:35:17.279Z,6.40
2018-07-26T02:37:45.940Z,7.00
2018-07-26T02:40:14.677Z,7.27
2018-07-26T02:42:43.502Z,7.07
2018-07-26T02:45:12.293Z,7.13
2018-07-26T02:47:41.012Z,6.47
2018-07-26T02:50:10.108Z,7.30
2018-07-26T02:52:38.879Z,6.80
2018-07-26T02:55:07.667Z,6.20
2018-07-26T02:57:36.389Z,6.50
2018-07-26T03:00:05.818Z,6.60
2018-07-26T03:02:34.545Z,7.20
2018-07-26T03:05:03.340Z,7.50
2018-07-26T03:07:32.128Z,6.67
2018-07-26T03:10:00.864Z,6.70
2018-07-26T03:12:29.744Z,7.47
2018-07-26T03:14:58.484Z,7.20
2018-07-26T03:17:27.338Z,8.20
2018-07-26T03:19:56.068Z,6.83
2018-07-26T03:22:24.964Z,7.93
2018-07-26T03:24:53.893Z,8.53
2018-07-26T03:27:22.674Z,7.70
2018-07-26T03:29:51.376Z,7.60
2018-07-26T03:32:20.196Z,7.10
2018-07-26T03:34:49.005Z,7.60
2018-07-26T03:37:17.766Z,7.37
2018-07-26T03:39:46.550Z,7.40
2018-07-26T03:42:15.278Z,7.60
2018-07-26T03:44:44.004Z,7.37
2018-07-26T03:47:12.788Z,8.27
2018-07-26T03:49:41.504Z,7.30
2018-07-26T03:52:10.256Z,7.37
2018-07-26T03:54:38.960Z,6.83
2018-07-26T03:57:07.960Z,7.20
2018-07-26T03:59:36.727Z,6.90
2018-07-26T04:02:05.460Z,6.97
2018-07-26T04:04:34.202Z,7.17
2018-07-26T04:07:02.979Z,7.50
2018-07-26T04:09:31.846Z,7.67
2018-07-26T04:12:00.562Z,7.43
2018-07-26T04:14:29.341Z,7.20
2018-07-26T04:16:58.133Z,8.20
2018-07-26T04:19:26.823Z,8.07
2018-07-26T04:21:55.649Z,8.27
2018-07-26T04:24:24.401Z,8.47
2018-07-26T04:26:54.107Z,6.73
2018-07-26T04:29:22.898Z,8.50
2018-07-26T04:31:51.685Z,7.63
2018-07-26T04:34:20.301Z,7.50
2018-07-26T04:36:49.022Z,8.40
2018-07-26T04:39:17.774Z,7.87
2018-07-26T04:41:46.559Z,8.00
2018-07-26T04:44:15.328Z,8.47
2018-07-26T04:46:44.138Z,6.80
2018-07-26T04:49:12.907Z,7.37
2018-07-26T04:51:41.592Z,7.30
2018-07-26T04:54:10.417Z,7.17
2018-07-26T04:56:39.116Z,7.93
2018-07-26T04:59:07.931Z,6.90
2018-07-26T05:01:36.949Z,9.57
2018-07-26T05:04:05.732Z,7.70
2018-07-26T05:06:34.479Z,8.07
2018-07-26T05:09:03.765Z,7.80
2018-07-26T05:11:32.504Z,7.23
2018-07-26T05:14:01.316Z,8.33
2018-07-26T05:16:30.023Z,7.67
2018-07-26T05:18:58.824Z,6.87
2018-07-26T05:21:27.453Z,7.40
2018-07-26T05:23:56.282Z,7.60
2018-07-26T05:26:25.036Z,7.70
2018-07-26T05:28:53.837Z,6.60
2018-07-26T05:31:22.607Z,6.97
2018-07-26T05:33:51.368Z,6.30
2018-07-26T05:36:20.095Z,6.07
2018-07-26T05:38:48.899Z,6.50
2018-07-26T05:41:17.763Z,6.43
2018-07-26T05:43:46.545Z,6.50
2018-07-26T05:46:15.257Z,6.60
2018-07-26T05:48:43.944Z,6.63
2018-07-26T05:51:12.681Z,6.90
2018-07-26T05:53:41.413Z,5.83
2018-07-26T05:56:10.207Z,5.60
2018-07-26T05:58:38.982Z,5.27
2018-07-26T06:01:07.720Z,4.80
2018-07-26T06:03:36.458Z,5.30
2018-07-26T06:06:05.407Z,5.27
2018-07-26T06:08:34.134Z,5.50
2018-07-26T06:11:02.872Z,6.20
2018-07-26T06:13:31.635Z,5.17
2018-07-26T06:16:00.424Z,5.83
2018-07-26T06:18:29.188Z,6.53
2018-07-26T06:20:57.929Z,6.10
2018-07-26T06:23:26.786Z,6.33
2018-07-26T06:25:55.517Z,5.63
2018-07-26T06:28:24.292Z,7.83
2018-07-26T06:30:53.030Z,7.33
2018-07-26T06:33:21.806Z,6.97
2018-07-26T06:35:50.660Z,7.87
2018-07-26T06:38:19.393Z,7.57
2018-07-26T06:40:48.101Z,8.30
2018-07-26T06:43:16.924Z,8.47
2018-07-26T06:45:45.816Z,8.47
2018-07-26T06:48:14.600Z,8.90
2018-07-26T06:50:43.388Z,9.50
2018-07-26T06:53:12.265Z,8.80
2018-07-26T06:55:40.989Z,10.17
2018-07-26T06:58:09.699Z,9.77
2018-07-26T07:00:38.462Z,10.17
2018-07-26T07:03:07.209Z,7.87
2018-07-26T07:05:35.928Z,8.40
2018-07-26T07:08:04.749Z,7.10
2018-07-26T07:10:33.852Z,7.20
2018-07-26T07:13:02.559Z,7.00
2018-07-26T07:15:31.421Z,6.90
2018-07-26T07:18:03.916Z,6.40
2018-07-26T07:20:32.947Z,6.80
2018-07-26T07:23:02.862Z,6.43
2018-07-26T07:25:31.931Z,6.07
2018-07-26T07:28:01.573Z,6.20
2018-07-26T07:30:30.364Z,6.50
2018-07-26T07:32:59.097Z,6.67
2018-07-26T07:35:27.959Z,7.67
2018-07-26T07:37:56.648Z,7.57
2018-07-26T07:40:27.138Z,8.70
2018-07-26T07:42:56.081Z,8.50
2018-07-26T07:45:24.744Z,8.47
2018-07-26T07:47:53.488Z,7.60
2018-07-26T07:50:22.204Z,8.17
2018-07-26T07:52:50.959Z,9.00
2018-07-26T07:55:19.669Z,8.80
2018-07-26T07:57:48.520Z,8.30
2018-07-26T08:00:17.243Z,8.33
2018-07-26T08:02:45.976Z,7.97
2018-07-26T08:05:14.764Z,7.33
2018-07-26T08:07:43.445Z,7.50
2018-07-26T08:10:12.393Z,7.70
2018-07-26T08:12:41.148Z,7.93
2018-07-26T08:15:10.602Z,8.60
2018-07-26T08:17:39.355Z,7.37
2018-07-26T08:20:09.200Z,7.60
2018-07-26T08:22:37.888Z,7.50
2018-07-26T08:25:07.382Z,8.43
2018-07-26T08:27:36.077Z,8.03
2018-07-26T08:30:06.552Z,7.90
2018-07-26T08:32:35.298Z,7.37
2018-07-26T08:35:04.101Z,8.10
2018-07-26T08:37:32.789Z,8.90
2018-07-26T08:40:01.719Z,8.50
2018-07-26T08:42:30.412Z,9.03
2018-07-26T08:44:59.135Z,8.00
2018-07-26T08:47:27.891Z,7.43
2018-07-26T08:49:56.713Z,7.63
2018-07-26T08:52:25.411Z,6.70
2018-07-26T08:54:54.089Z,6.30
2018-07-26T08:57:22.832Z,6.23
2018-07-26T08:59:51.512Z,5.33
2018-07-26T09:02:20.284Z,5.23
2018-07-26T09:04:48.936Z,6.20
2018-07-26T09:07:17.645Z,6.10
2018-07-26T09:09:46.398Z,6.40
2018-07-26T09:12:15.067Z,5.40
2018-07-26T09:14:43.716Z,6.17
2018-07-26T09:17:12.507Z,6.30
2018-07-26T09:19:41.199Z,6.90
2018-07-26T09:22:09.859Z,6.47
2018-07-26T09:24:41.284Z,5.80
2018-07-26T09:27:11.316Z,6.77
2018-07-26T09:29:40.118Z,6.20
2018-07-26T09:32:08.806Z,6.00
2018-07-26T09:34:37.503Z,7.23
2018-07-26T09:37:06.191Z,6.47
2018-07-26T09:39:34.896Z,7.60
2018-07-26T09:42:03.616Z,10.60
2018-07-26T09:44:33.268Z,8.27
2018-07-26T09:47:01.983Z,6.93
2018-07-26T09:49:30.701Z,8.00
2018-07-26T09:51:59.415Z,7.10
2018-07-26T09:54:28.101Z,6.77
2018-07-26T09:56:56.757Z,7.90
2018-07-26T09:59:25.445Z,6.87
2018-07-26T10:01:54.156Z,6.80
2018-07-26T10:04:22.848Z,7.20
2018-07-26T10:06:51.551Z,6.60
2018-07-26T10:09:20.181Z,7.23
2018-07-26T10:11:48.902Z,6.90
2018-07-26T10:14:17.578Z,7.87
2018-07-26T10:16:46.272Z,6.33
2018-07-26T10:19:14.956Z,7.20
2018-07-26T10:21:43.717Z,7.47
2018-07-26T10:24:12.408Z,7.90
2018-07-26T10:26:41.100Z,7.50
2018-07-26T10:29:09.820Z,7.10
2018-07-26T10:31:38.574Z,9.00
2018-07-26T10:34:07.279Z,6.67
2018-07-26T10:36:36.061Z,7.67
2018-07-26T10:39:07.478Z,7.77
2018-07-26T10:41:36.182Z,7.23
2018-07-26T10:44:04.947Z,8.97
2018-07-26T10:46:33.682Z,7.30
2018-07-26T10:49:02.385Z,7.23
2018-07-26T10:51:31.568Z,6.70
2018-07-26T10:54:00.229Z,6.47
2018-07-26T10:56:29.281Z,8.03
2018-07-26T10:58:58.020Z,7.13
2018-07-26T11:01:26.742Z,8.27
2018-07-26T11:03:55.481Z,7.07
2018-07-26T11:06:24.141Z,38.53
2018-07-26T11:08:52.931Z,34.60
2018-07-26T11:11:22.486Z,7.27
2018-07-26T11:13:51.144Z,8.03
2018-07-26T11:16:19.923Z,8.00
2018-07-26T11:18:48.647Z,8.40
2018-07-26T11:21:17.352Z,10.53
2018-07-26T11:23:46.124Z,7.90
2018-07-26T11:26:14.964Z,8.30
2018-07-26T11:28:43.664Z,8.73
2018-07-26T11:31:12.411Z,7.27
2018-07-26T11:33:41.093Z,7.77
2018-07-26T11:36:10.132Z,8.10
2018-07-26T11:38:38.956Z,7.80
2018-07-26T11:41:07.735Z,7.53
2018-07-26T11:43:36.484Z,8.07
2018-07-26T11:46:05.349Z,7.57
2018-07-26T11:48:34.160Z,8.50
2018-07-26T11:51:02.935Z,9.40
2018-07-26T11:53:31.723Z,10.30
2018-07-26T11:56:00.536Z,10.23
2018-07-26T11:58:29.234Z,8.87
2018-07-26T12:00:57.938Z,9.00
2018-07-26T12:03:26.731Z,9.43
2018-07-26T12:05:55.425Z,8.70
2018-07-26T12:08:24.134Z,8.73
2018-07-26T12:10:52.986Z,7.83
2018-07-26T12:13:21.677Z,7.33
2018-07-26T12:15:50.381Z,8.10
2018-07-26T12:18:19.072Z,7.90
2018-07-26T12:20:47.755Z,7.97
2018-07-26T12:23:16.491Z,7.83
2018-07-26T12:25:45.289Z,7.50
2018-07-26T12:28:14.004Z,6.90
2018-07-26T12:30:42.748Z,6.90
2018-07-26T12:33:11.536Z,7.63
2018-07-26T12:35:40.396Z,6.60
2018-07-26T12:38:09.436Z,6.43
2018-07-26T12:40:38.168Z,6.50
2018-07-26T12:43:06.808Z,6.73
2018-07-26T12:45:35.555Z,6.97
2018-07-26T12:48:04.223Z,6.60
2018-07-26T12:50:33.021Z,6.63
2018-07-26T12:53:01.787Z,7.00
2018-07-26T12:55:30.519Z,6.23
2018-07-26T12:57:59.253Z,7.10
2018-07-26T13:00:27.953Z,6.67
2018-07-26T13:02:56.791Z,7.60
2018-07-26T13:05:25.542Z,6.10
2018-07-26T13:07:54.282Z,6.57
2018-07-26T13:10:23.016Z,6.80
2018-07-26T13:12:51.725Z,6.40
2018-07-26T13:15:20.484Z,6.93
2018-07-26T13:17:49.160Z,6.90
2018-07-26T13:20:17.890Z,6.70
2018-07-26T13:22:46.556Z,6.50
2018-07-26T13:25:15.206Z,6.80
2018-07-26T13:27:44.107Z,6.40
2018-07-26T13:30:12.963Z,7.30
2018-07-26T13:32:41.671Z,7.13
2018-07-26T13:35:10.359Z,7.23
2018-07-26T13:37:39.555Z,6.70
2018-07-26T13:40:08.218Z,6.50
2018-07-26T13:42:36.907Z,7.07
2018-07-26T13:45:06.225Z,7.17
2018-07-26T13:47:34.933Z,7.20
2018-07-26T13:50:03.782Z,6.70
2018-07-26T13:52:32.502Z,9.00
2018-07-26T13:55:01.260Z,8.63
2018-07-26T13:57:30.121Z,9.20
2018-07-26T13:59:59.079Z,9.17
2018-07-26T14:02:27.914Z,8.83
2018-07-26T14:04:56.637Z,9.40
2018-07-26T14:07:25.371Z,9.90
2018-07-26T14:09:54.061Z,8.73
2018-07-26T14:12:22.695Z,9.03
2018-07-26T14:14:51.375Z,9.93
2018-07-26T14:17:20.050Z,10.80
2018-07-26T14:19:48.809Z,9.40
2018-07-26T14:22:17.528Z,9.27
2018-07-26T14:24:46.364Z,9.10
2018-07-26T14:27:15.108Z,7.30
2018-07-26T14:29:43.751Z,7.80
2018-07-26T14:32:12.456Z,7.83
2018-07-26T14:34:41.165Z,7.20
2018-07-26T14:37:09.832Z,11.10
2018-07-26T14:39:38.541Z,9.87
2018-07-26T14:42:07.228Z,10.90
2018-07-26T14:44:35.910Z,8.97
2018-07-26T14:47:04.585Z,8.67
2018-07-26T14:49:33.378Z,9.00
2018-07-26T14:52:02.028Z,7.80
2018-07-26T14:54:30.763Z,6.47
2018-07-26T14:56:59.468Z,7.23
2018-07-26T14:59:28.297Z,6.40
2018-07-26T15:01:57.230Z,7.23
2018-07-26T15:04:26.089Z,7.60
2018-07-26T15:06:54.884Z,7.47
2018-07-26T15:09:23.626Z,9.17
2018-07-26T15:11:52.520Z,6.90
2018-07-26T15:14:21.378Z,8.03
2018-07-26T15:16:50.168Z,8.37
2018-07-26T15:19:19.061Z,7.00
2018-07-26T15:21:47.958Z,7.00
2018-07-26T15:24:16.693Z,8.57
2018-07-26T15:26:45.371Z,7.80
2018-07-26T15:29:14.778Z,8.00
2018-07-26T15:31:43.544Z,7.40
2018-07-26T15:34:12.279Z,7.60
2018-07-26T15:36:41.045Z,7.00
2018-07-26T15:39:10.605Z,7.90
2018-07-26T15:41:44.307Z,7.73
2018-07-26T15:44:14.434Z,8.00
2018-07-26T15:46:43.103Z,7.30
2018-07-26T15:49:12.164Z,7.20
2018-07-26T15:51:41.428Z,8.30
2018-07-26T15:54:10.082Z,8.43
2018-07-26T15:56:38.894Z,8.17
2018-07-26T15:59:07.595Z,8.70
2018-07-26T16:01:36.348Z,8.20
2018-07-26T16:04:05.053Z,7.70
2018-07-26T16:06:33.729Z,8.23
2018-07-26T16:09:02.492Z,8.53
2018-07-26T16:11:31.213Z,8.57
2018-07-26T16:13:59.928Z,6.50
2018-07-26T16:16:28.679Z,7.13
2018-07-26T16:18:57.453Z,8.40
2018-07-26T16:21:26.134Z,7.63
2018-07-26T16:23:54.872Z,7.93
2018-07-26T16:26:23.566Z,6.83
2018-07-26T16:28:52.503Z,8.20
2018-07-26T16:31:21.149Z,7.23
2018-07-26T16:33:49.870Z,7.57
2018-07-26T16:36:18.605Z,6.70
2018-07-26T16:38:47.376Z,6.97
2018-07-26T16:41:16.312Z,6.40
2018-07-26T16:43:45.000Z,6.77
2018-07-26T16:46:13.732Z,7.00
2018-07-26T16:48:42.532Z,6.40
2018-07-26T16:51:11.248Z,6.47
2018-07-26T16:53:39.989Z,6.47
2018-07-26T16:56:08.675Z,7.00
2018-07-26T16:58:37.436Z,7.20
2018-07-26T17:01:06.075Z,7.50
2018-07-26T17:03:34.792Z,6.20
2018-07-26T17:06:03.506Z,6.87
2018-07-26T17:08:32.214Z,6.93
2018-07-26T17:11:00.933Z,7.67
2018-07-26T17:13:29.704Z,6.53
2018-07-26T17:15:58.404Z,6.80
2018-07-26T17:18:27.141Z,7.10
2018-07-26T17:20:55.830Z,6.40
2018-07-26T17:23:24.522Z,6.70
2018-07-26T17:25:53.195Z,7.13
2018-07-26T17:28:21.837Z,6.67
2018-07-26T17:30:50.539Z,7.53
2018-07-26T17:33:19.257Z,7.10
2018-07-26T17:35:47.971Z,6.70
2018-07-26T17:38:16.700Z,6.80
2018-07-26T17:40:45.424Z,7.63
2018-07-26T17:43:14.180Z,6.83
2018-07-26T17:45:42.888Z,6.90
2018-07-26T17:48:11.596Z,7.47
2018-07-26T17:50:40.265Z,6.60
2018-07-26T17:53:09.003Z,6.73
2018-07-26T17:55:37.714Z,6.13
2018-07-26T17:58:06.426Z,6.37
2018-07-26T18:00:35.159Z,6.93
2018-07-26T18:03:03.862Z,5.53
2018-07-26T18:05:32.688Z,6.27
2018-07-26T18:08:01.452Z,7.10
2018-07-26T18:10:30.167Z,5.97
2018-07-26T18:12:58.856Z,7.33
2018-07-26T18:15:27.548Z,6.20
2018-07-26T18:17:56.239Z,5.57
2018-07-26T18:20:24.901Z,6.40
2018-07-26T18:22:53.587Z,7.20
2018-07-26T18:25:22.428Z,6.67
2018-07-26T18:27:51.144Z,7.03
2018-07-26T18:30:19.835Z,7.83
2018-07-26T18:32:48.547Z,6.33
2018-07-26T18:35:17.219Z,7.77
2018-07-26T18:37:45.898Z,7.70
2018-07-26T18:40:14.559Z,7.13
2018-07-26T18:42:43.271Z,6.77
2018-07-26T18:45:12.408Z,6.87
2018-07-26T18:47:41.131Z,7.23
2018-07-26T18:50:10.852Z,7.70
2018-07-26T18:52:39.665Z,7.20
2018-07-26T18:55:09.954Z,6.77
2018-07-26T18:57:39.232Z,6.23
2018-07-26T19:00:09.713Z,6.50
2018-07-26T19:02:38.425Z,7.40
2018-07-26T19:05:07.387Z,7.50
2018-07-26T19:07:36.442Z,7.37
2018-07-26T19:10:06.620Z,7.20
2018-07-26T19:12:36.003Z,6.87
2018-07-26T19:15:06.286Z,7.30
2018-07-26T19:17:35.089Z,6.70
2018-07-26T19:20:04.132Z,8.20
2018-07-26T19:22:32.874Z,8.30
2018-07-26T19:25:01.600Z,7.43
2018-07-26T19:27:30.243Z,7.40
2018-07-26T19:29:59.002Z,7.30
2018-07-26T19:32:27.741Z,7.90
2018-07-26T19:34:56.559Z,7.90
2018-07-26T19:37:25.379Z,7.33
2018-07-26T19:39:54.416Z,8.10
2018-07-26T19:42:23.111Z,7.40
2018-07-26T19:44:51.799Z,7.20
2018-07-26T19:47:20.453Z,7.40
2018-07-26T19:49:49.161Z,7.87
2018-07-26T19:52:17.848Z,7.03
2018-07-26T19:54:46.746Z,7.40
2018-07-26T19:57:15.430Z,7.30
2018-07-26T19:59:44.109Z,7.50
2018-07-26T20:02:13.022Z,7.40
2018-07-26T20:04:41.708Z,7.30
2018-07-26T20:07:10.472Z,7.10
2018-07-26T20:09:39.214Z,7.20
2018-07-26T20:12:07.912Z,7.97
2018-07-26T20:14:36.653Z,7.20
2018-07-26T20:17:05.661Z,8.30
2018-07-26T20:19:40.660Z,7.60
2018-07-26T20:22:09.345Z,8.70
2018-07-26T20:24:38.038Z,7.40
2018-07-26T20:27:06.841Z,8.97
2018-07-26T20:29:35.610Z,7.70
2018-07-26T20:32:04.457Z,7.80
2018-07-26T20:34:33.193Z,7.00
2018-07-26T20:37:01.952Z,7.73
2018-07-26T20:39:30.831Z,8.40
2018-07-26T20:41:59.609Z,8.40
2018-07-26T20:44:28.292Z,8.63
2018-07-26T20:46:57.047Z,7.33
2018-07-26T20:49:26.595Z,8.60
2018-07-26T20:51:55.343Z,8.80
2018-07-26T20:54:24.027Z,8.27
2018-07-26T20:56:52.795Z,8.50
2018-07-26T20:59:21.529Z,7.63
2018-07-26T21:01:50.740Z,7.30
2018-07-26T21:04:19.462Z,7.57
2018-07-26T21:06:48.176Z,7.53
2018-07-26T21:09:16.940Z,8.23
2018-07-26T21:11:46.058Z,7.93
2018-07-26T21:14:14.820Z,8.93
2018-07-26T21:16:44.086Z,7.57
2018-07-26T21:19:12.835Z,7.73
2018-07-26T21:21:41.601Z,7.80
2018-07-26T21:24:10.391Z,7.97
2018-07-26T21:26:39.088Z,8.37
2018-07-26T21:29:07.886Z,8.97
2018-07-26T21:31:36.586Z,8.43
2018-07-26T21:34:05.308Z,8.80
2018-07-26T21:36:34.258Z,8.50
2018-07-26T21:39:03.210Z,8.70
2018-07-26T21:41:31.977Z,8.07
2018-07-26T21:44:01.455Z,9.63
2018-07-26T21:46:30.269Z,9.30
2018-07-26T21:48:59.008Z,9.83
2018-07-26T21:51:27.773Z,9.43
2018-07-26T21:53:56.739Z,10.07
2018-07-26T21:56:25.453Z,10.30
2018-07-26T21:58:54.145Z,9.67
2018-07-26T22:01:22.919Z,9.60
2018-07-26T22:03:51.668Z,8.93
2018-07-26T22:06:20.401Z,9.67
2018-07-26T22:08:49.098Z,9.27
2018-07-26T22:11:17.875Z,8.80
2018-07-26T22:13:46.617Z,9.27
2018-07-26T22:16:15.436Z,10.33
2018-07-26T22:18:44.160Z,10.73
2018-07-26T22:21:12.929Z,10.40
2018-07-26T22:23:41.837Z,11.47
2018-07-26T22:26:10.552Z,10.57
2018-07-26T22:28:39.280Z,10.67
2018-07-26T22:31:08.111Z,10.27
2018-07-26T22:33:36.827Z,11.17
2018-07-26T22:36:05.660Z,12.70
2018-07-26T22:38:34.487Z,12.00
2018-07-26T22:41:03.295Z,11.47
2018-07-26T22:43:32.024Z,11.90
2018-07-26T22:46:00.780Z,11.80
2018-07-26T22:48:29.546Z,13.80
2018-07-26T22:50:58.316Z,13.73
2018-07-26T22:53:27.273Z,13.07
2018-07-26T22:55:55.939Z,13.83
2018-07-26T22:58:25.039Z,14.47
2018-07-26T23:00:54.181Z,13.80
2018-07-26T23:03:22.853Z,12.50
2018-07-26T23:05:51.624Z,13.60
2018-07-26T23:08:20.368Z,14.20
2018-07-26T23:10:49.096Z,13.90
2018-07-26T23:13:17.889Z,14.80
2018-07-26T23:15:46.620Z,15.77
2018-07-26T23:18:15.303Z,16.57
2018-07-26T23:20:44.071Z,15.20
2018-07-26T23:23:12.805Z,15.87
2018-07-26T23:25:41.577Z,15.00
2018-07-26T23:28:10.505Z,17.40
2018-07-26T23:30:39.248Z,18.87
2018-07-26T23:33:08.985Z,17.23
2018-07-26T23:35:37.778Z,15.93
2018-07-26T23:38:06.491Z,18.47
2018-07-26T23:40:35.171Z,17.20
2018-07-26T23:43:03.894Z,17.40
2018-07-26T23:45:32.643Z,19.90
2018-07-26T23:48:01.345Z,20.40
2018-07-26T23:50:30.112Z,19.40
2018-07-26T23:52:58.853Z,19.70
2018-07-26T23:55:27.570Z,20.00
2018-07-26T23:57:56.272Z,17.90
